Time;durP1;ratioP1;P1;durP2;ratioP2;P2;SDS_P1;SDS_P2;PMS_P1;PMS_P2;Temp;Humidity;BMP_temperature;BMP_pressure;BME280_temperature;BME280_humidity;BME280_pressure;Samples;Min_cycle;Max_cycle;Signal;HPM_P1;HPM_P2
2021/12/03 00:00:16;;;;;;;2.33;1.55;;;;;;;17.28;50.82;101052.59;4958581;28;20039;-76
2021/12/03 00:02:41;;;;;;;2.63;1.67;;;;;;;17.27;50.69;101053.50;4974697;28;20049;-75
2021/12/03 00:05:08;;;;;;;3.63;1.45;;;;;;;17.28;50.53;101059.56;4974363;28;20031;-76
2021/12/03 00:07:36;;;;;;;1.90;1.30;;;;;;;17.25;51.19;101060.44;4958283;28;20133;-76
2021/12/03 00:10:01;;;;;;;2.67;1.40;;;;;;;17.26;50.70;101053.50;4943217;28;20400;-76
2021/12/03 00:12:27;;;;;;;2.38;1.60;;;;;;;17.26;50.84;101051.75;4974383;28;20031;-78
2021/12/03 00:14:52;;;;;;;1.98;1.52;;;;;;;17.25;50.23;101056.97;4958172;28;20400;-77
2021/12/03 00:17:18;;;;;;;2.58;1.40;;;;;;;17.24;50.92;101053.50;4958033;28;20035;-77
2021/12/03 00:19:43;;;;;;;1.80;1.27;;;;;;;17.25;50.88;101054.38;4942080;28;20497;-77
2021/12/03 00:22:08;;;;;;;2.28;1.35;;;;;;;17.23;50.66;101054.38;4942223;28;20038;-78
2021/12/03 00:24:34;;;;;;;2.15;1.33;;;;;;;17.24;50.66;101056.09;4942157;28;20444;-77
2021/12/03 00:26:59;;;;;;;2.83;1.60;;;;;;;17.22;51.01;101060.47;4958142;28;20038;-77
2021/12/03 00:29:25;;;;;;;2.33;1.38;;;;;;;17.22;50.52;101056.97;4942781;28;20077;-77
2021/12/03 00:31:50;;;;;;;1.90;1.30;;;;;;;17.22;50.44;101059.56;4942408;28;20042;-80
2021/12/03 00:34:15;;;;;;;2.10;1.42;;;;;;;17.24;50.65;101055.22;4957681;28;20467;-77
2021/12/03 00:36:41;;;;;;;2.55;1.50;;;;;;;17.22;50.32;101056.97;4941895;28;20038;-77
2021/12/03 00:39:06;;;;;;;2.13;1.30;;;;;;;17.22;50.56;101064.78;4957818;28;20512;-79
2021/12/03 00:41:40;;;;;;;2.25;1.33;;;;;;;17.21;50.45;101057.84;4973683;28;20085;-79
2021/12/03 00:44:05;;;;;;;2.80;1.50;;;;;;;17.21;50.44;101063.91;4975261;28;20084;-78
2021/12/03 00:46:30;;;;;;;2.83;1.35;;;;;;;17.21;50.33;101057.84;4957410;28;20055;-80
2021/12/03 00:48:56;;;;;;;3.60;1.45;;;;;;;17.21;50.53;101053.50;4941757;28;20477;-77
2021/12/03 00:51:23;;;;;;;2.47;1.30;;;;;;;17.20;50.52;101056.13;4957748;28;20050;-78
2021/12/03 00:53:49;;;;;;;2.55;1.60;;;;;;;17.20;50.45;101058.72;4957932;28;20045;-77
2021/12/03 00:56:16;;;;;;;2.40;1.20;;;;;;;17.19;50.55;101051.81;4957911;28;20026;-77
2021/12/03 00:58:42;;;;;;;2.55;1.10;;;;;;;17.19;50.44;101054.41;4973437;28;20388;-79
2021/12/03 01:01:08;;;;;;;2.33;1.20;;;;;;;17.19;50.81;101047.44;4941430;28;20552;-80
2021/12/03 01:03:37;;;;;;;2.42;1.45;;;;;;;17.18;50.24;101043.13;4973610;28;20042;-78
2021/12/03 01:06:03;;;;;;;2.35;1.40;;;;;;;17.19;50.52;101036.19;4974826;28;20035;-77
2021/12/03 01:08:28;;;;;;;1.95;1.33;;;;;;;17.18;50.61;101031.84;4973428;28;20057;-78
2021/12/03 01:10:54;;;;;;;1.85;1.20;;;;;;;17.17;50.37;101027.53;4957316;28;20043;-77
2021/12/03 01:13:20;;;;;;;2.53;1.05;;;;;;;17.16;50.50;101023.19;4973546;28;20042;-78
2021/12/03 01:15:46;;;;;;;1.83;1.20;;;;;;;17.18;50.60;101026.66;4973480;28;20030;-77
2021/12/03 01:18:12;;;;;;;2.17;1.30;;;;;;;17.17;50.36;101020.59;4973459;28;20481;-76
2021/12/03 01:20:39;;;;;;;2.28;1.55;;;;;;;17.17;50.17;101024.94;4973210;28;20485;-77
2021/12/03 01:23:06;;;;;;;5.38;1.30;;;;;;;17.16;50.25;101024.06;4973398;28;20042;-76
2021/12/03 01:25:31;;;;;;;1.48;1.10;;;;;;;17.16;50.50;101033.59;4973389;28;20134;-76
2021/12/03 01:27:59;;;;;;;2.25;1.05;;;;;;;17.16;50.32;101034.47;4974585;28;20473;-76
2021/12/03 01:30:28;;;;;;;2.25;1.23;;;;;;;17.16;50.29;101044.88;4957407;28;20031;-76
2021/12/03 01:32:54;;;;;;;2.15;1.15;;;;;;;17.16;50.27;101049.19;4942067;28;20409;-76
2021/12/03 01:35:20;;;;;;;1.90;1.20;;;;;;;17.16;50.40;101044.00;4957284;28;20049;-76
2021/12/03 01:37:46;;;;;;;2.65;1.30;;;;;;;17.14;50.43;101040.56;4957096;28;20066;-77
2021/12/03 01:40:16;;;;;;;1.77;1.15;;;;;;;17.15;49.93;101030.13;4957095;28;20467;-77
2021/12/03 01:42:44;;;;;;;1.80;1.10;;;;;;;17.15;50.25;101043.13;4974508;28;20102;-76
2021/12/03 01:45:16;;;;;;;1.98;1.20;;;;;;;17.14;50.44;101040.56;4957069;28;20470;-76
2021/12/03 01:47:42;;;;;;;2.95;1.13;;;;;;;17.14;50.09;101044.03;4956735;28;20043;-75
2021/12/03 01:50:09;;;;;;;1.92;1.30;;;;;;;17.13;49.90;101025.81;4972385;28;20038;-76
2021/12/03 01:52:35;;;;;;;3.97;1.20;;;;;;;17.13;50.11;101028.41;4972180;28;20477;-75
2021/12/03 01:55:02;;;;;;;1.92;1.10;;;;;;;17.12;50.26;101027.56;4959437;28;20047;-76
2021/12/03 01:57:27;;;;;;;2.00;1.27;;;;;;;17.13;50.26;101015.41;4975502;28;20026;-75
2021/12/03 01:59:52;;;;;;;3.83;1.40;;;;;;;17.13;50.04;101021.47;4959297;28;20101;-76
2021/12/03 02:02:18;;;;;;;2.25;1.13;;;;;;;17.13;50.28;101018.00;4975478;28;20041;-76
2021/12/03 02:04:44;;;;;;;2.05;1.10;;;;;;;17.13;50.18;101028.41;4943343;28;20125;-77
2021/12/03 02:07:10;;;;;;;2.45;1.30;;;;;;;17.12;49.93;101034.50;4975226;28;20035;-77
2021/12/03 02:09:35;;;;;;;2.33;1.10;;;;;;;17.13;50.27;101041.41;4959180;28;20065;-76
2021/12/03 02:12:01;;;;;;;1.60;0.93;;;;;;;17.11;50.17;101031.00;4943160;28;20089;-76
2021/12/03 02:14:26;;;;;;;1.80;1.13;;;;;;;17.12;50.16;101037.97;4975157;28;20066;-77
2021/12/03 02:16:52;;;;;;;2.63;1.20;;;;;;;17.11;50.06;101037.97;4943185;28;20034;-77
2021/12/03 02:19:18;;;;;;;2.00;1.23;;;;;;;17.11;50.35;101035.34;4943079;28;20108;-77
2021/12/03 02:21:43;;;;;;;3.35;1.30;;;;;;;17.11;50.31;101030.16;4976470;28;20027;-77
2021/12/03 02:24:09;;;;;;;2.15;1.20;;;;;;;17.10;50.26;101018.03;4975042;28;20113;-76
2021/12/03 02:26:34;;;;;;;1.88;1.20;;;;;;;17.10;50.14;101012.84;4959019;28;20034;-77
2021/12/03 02:29:00;;;;;;;3.15;1.40;;;;;;;17.10;49.99;101007.63;4943042;28;20392;-76
2021/12/03 02:31:25;;;;;;;1.95;1.30;;;;;;;17.09;50.05;101000.69;4942854;28;20043;-77
2021/12/03 02:33:52;;;;;;;1.90;1.08;;;;;;;17.10;50.13;101005.91;4959275;28;20046;-77
2021/12/03 02:36:18;;;;;;;1.77;1.10;;;;;;;17.09;50.16;101005.91;4942928;28;20041;-77
2021/12/03 02:38:45;;;;;;;1.92;1.20;;;;;;;17.09;49.85;101005.91;4958749;28;20047;-76
2021/12/03 02:41:11;;;;;;;2.45;1.35;;;;;;;17.09;50.17;101005.91;4958868;28;20042;-77
2021/12/03 02:43:36;;;;;;;4.28;1.10;;;;;;;17.09;49.83;101003.28;4942663;28;20042;-76
2021/12/03 02:46:02;;;;;;;2.50;1.20;;;;;;;17.07;50.08;101003.28;4935656;28;1145983;-76
2021/12/03 02:48:27;;;;;;;1.52;1.15;;;;;;;17.08;50.47;101011.97;4976053;28;20043;-76
2021/12/03 02:50:55;;;;;;;2.05;1.02;;;;;;;17.08;50.22;101014.59;4959969;28;20034;-76
2021/12/03 02:53:20;;;;;;;3.03;1.17;;;;;;;17.08;50.09;101011.97;4975840;28;20031;-76
2021/12/03 02:55:46;;;;;;;2.00;1.17;;;;;;;17.06;50.31;101010.25;4959699;28;20046;-76
2021/12/03 02:58:12;;;;;;;1.58;1.00;;;;;;;17.06;49.99;101010.25;4959617;28;20050;-76
2021/12/03 03:00:40;;;;;;;2.58;1.23;;;;;;;17.06;50.03;101006.78;4960022;28;20066;-78
2021/12/03 03:03:05;;;;;;;1.92;1.20;;;;;;;17.08;50.09;101009.38;4975585;28;20035;-78
2021/12/03 03:05:31;;;;;;;2.22;1.20;;;;;;;17.07;50.09;101008.50;4974454;28;20035;-78
2021/12/03 03:07:57;;;;;;;1.88;1.10;;;;;;;17.05;49.98;101000.72;4959267;28;20043;-77
2021/12/03 03:10:28;;;;;;;2.10;1.20;;;;;;;17.05;50.19;100992.06;4943456;28;20042;-77
2021/12/03 03:12:54;;;;;;;2.42;1.23;;;;;;;17.06;50.00;100998.97;4975414;28;20039;-78
2021/12/03 03:15:20;;;;;;;1.60;1.05;;;;;;;17.05;50.19;100984.25;4959332;28;20034;-78
2021/12/03 03:17:47;;;;;;;2.53;1.23;;;;;;;17.04;49.94;100979.91;4943346;28;20046;-79
2021/12/03 03:20:14;;;;;;;2.42;1.13;;;;;;;17.04;50.01;100972.97;4975140;28;20035;-76
2021/12/03 03:22:41;;;;;;;2.80;1.08;;;;;;;17.03;50.07;100966.06;4974938;28;20043;-78
2021/12/03 03:25:10;;;;;;;2.80;1.13;;;;;;;17.03;49.95;100966.06;4976393;28;20106;-79
2021/12/03 03:27:36;;;;;;;2.30;1.17;;;;;;;17.03;50.30;100966.06;4974765;28;20038;-77
2021/12/03 03:30:04;;;;;;;1.88;0.82;;;;;;;17.03;49.89;100963.47;4975011;28;20035;-78
2021/12/03 03:32:30;;;;;;;2.28;1.10;;;;;;;17.04;49.89;100961.72;4974847;28;20083;-76
2021/12/03 03:34:55;;;;;;;1.92;1.00;;;;;;;17.02;49.80;100959.13;4974892;28;20477;-76
2021/12/03 03:37:21;;;;;;;1.23;0.90;;;;;;;17.03;49.75;100954.81;4959018;28;20026;-78
2021/12/03 03:39:47;;;;;;;1.95;1.30;;;;;;;17.02;50.02;100948.72;4958819;28;20039;-76
2021/12/03 03:42:14;;;;;;;2.00;1.10;;;;;;;17.02;49.89;100933.13;4958996;28;20061;-79
2021/12/03 03:44:40;;;;;;;1.63;1.00;;;;;;;17.02;50.09;100930.53;4958601;28;20047;-77
2021/12/03 03:47:07;;;;;;;2.22;1.10;;;;;;;17.01;49.92;100936.59;4974775;28;20035;-76
2021/12/03 03:49:33;;;;;;;2.20;1.00;;;;;;;17.01;50.08;100933.16;4958927;28;20038;-78
2021/12/03 03:52:00;;;;;;;2.10;1.00;;;;;;;17.02;49.87;100927.06;4942974;28;20047;-77
2021/12/03 03:54:26;;;;;;;1.70;0.90;;;;;;;17.02;49.89;100924.47;4974688;28;20481;-77
2021/12/03 03:56:52;;;;;;;2.15;1.00;;;;;;;17.00;50.23;100918.41;4958401;28;20055;-77
2021/12/03 03:59:18;;;;;;;2.03;1.20;;;;;;;17.00;49.90;100919.25;4958538;28;20093;-76
2021/12/03 04:01:45;;;;;;;2.63;1.15;;;;;;;17.01;49.80;100926.22;4974403;28;20041;-76
2021/12/03 04:04:11;;;;;;;1.73;1.00;;;;;;;17.00;50.35;100928.81;4942595;28;20038;-77
2021/12/03 04:06:36;;;;;;;2.35;1.08;;;;;;;16.99;50.07;100935.75;4958247;28;20043;-76
2021/12/03 04:09:02;;;;;;;1.35;0.80;;;;;;;16.99;50.11;100935.75;4958237;28;20070;-77
2021/12/03 04:11:27;;;;;;;2.20;0.90;;;;;;;17.00;50.03;100945.25;4974364;28;20121;-77
2021/12/03 04:13:53;;;;;;;2.55;1.17;;;;;;;17.00;49.98;100944.41;4958348;28;20035;-77
2021/12/03 04:16:18;;;;;;;1.75;1.00;;;;;;;16.99;50.13;100943.56;4942192;28;20064;-77
2021/12/03 04:18:44;;;;;;;2.30;1.00;;;;;;;16.99;50.02;100943.56;4958473;28;20043;-78
2021/12/03 04:21:09;;;;;;;2.38;1.05;;;;;;;16.99;49.95;100938.34;4958094;28;20046;-78
2021/12/03 04:23:35;;;;;;;1.80;0.90;;;;;;;17.00;49.98;100934.00;4958160;28;20038;-80
2021/12/03 04:26:01;;;;;;;1.50;0.95;;;;;;;16.99;50.21;100934.91;4973947;28;20053;-78
2021/12/03 04:28:26;;;;;;;1.40;0.98;;;;;;;16.98;50.08;100923.59;4974062;28;20045;-78
2021/12/03 04:30:52;;;;;;;2.45;1.00;;;;;;;16.99;49.92;100919.31;4941906;28;20141;-78
2021/12/03 04:33:18;;;;;;;1.00;0.73;;;;;;;16.98;49.95;100915.81;4973903;28;20039;-78
2021/12/03 04:35:44;;;;;;;2.03;1.02;;;;;;;16.98;50.16;100915.81;4958116;28;20046;-78
2021/12/03 04:38:10;;;;;;;1.65;0.73;;;;;;;16.97;50.26;100921.91;4974107;28;20117;-77
2021/12/03 04:40:37;;;;;;;1.73;0.82;;;;;;;16.96;50.61;100914.97;4957784;28;20134;-78
2021/12/03 04:43:04;;;;;;;1.80;0.80;;;;;;;16.96;50.69;100911.50;4957702;28;20039;-78
2021/12/03 04:45:30;;;;;;;1.92;1.00;;;;;;;16.97;50.60;100906.28;4957405;28;20050;-77
2021/12/03 04:47:57;;;;;;;2.20;0.82;;;;;;;16.97;50.64;100903.69;4973735;28;20031;-77
2021/12/03 04:50:26;;;;;;;1.90;0.95;;;;;;;16.98;50.75;100897.59;4958180;28;20045;-77
2021/12/03 04:52:52;;;;;;;1.42;0.73;;;;;;;16.99;50.90;100908.91;4973701;28;20086;-77
2021/12/03 04:55:19;;;;;;;1.83;0.90;;;;;;;16.98;50.90;100900.22;4973625;28;20393;-77
2021/12/03 04:57:45;;;;;;;2.95;1.00;;;;;;;16.99;50.82;100901.97;4973518;28;20082;-76
2021/12/03 05:00:16;;;;;;;1.33;0.80;;;;;;;17.00;50.96;100905.41;4957834;28;20042;-76
2021/12/03 05:02:42;;;;;;;2.13;0.80;;;;;;;17.00;50.94;100898.47;4973466;28;20026;-76
2021/12/03 05:05:07;;;;;;;2.15;0.88;;;;;;;17.01;50.90;100899.34;4973649;28;20046;-77
2021/12/03 05:10:09;;;;;;;1.92;0.80;;;;;;;17.02;51.03;100896.72;4975068;28;20480;-77
2021/12/03 05:12:35;;;;;;;2.72;1.58;;;;;;;17.02;51.01;100888.06;4957377;28;20038;-77
2021/12/03 05:15:01;;;;;;;1.40;0.70;;;;;;;17.02;50.98;100880.28;4974037;28;20058;-76
2021/12/03 05:17:26;;;;;;;1.30;0.75;;;;;;;17.03;50.99;100876.81;4973310;28;20469;-76
2021/12/03 05:19:51;;;;;;;2.58;0.90;;;;;;;17.03;51.09;100877.66;4973292;28;20057;-78
2021/12/03 05:22:17;;;;;;;1.23;0.75;;;;;;;17.03;51.13;100874.22;4941316;28;20034;-76
2021/12/03 05:24:46;;;;;;;1.60;0.77;;;;;;;17.03;51.12;100880.28;4957298;28;20385;-76
2021/12/03 05:27:19;;;;;;;1.75;0.80;;;;;;;17.04;50.95;100875.94;4973252;28;20041;-78
2021/12/03 05:29:47;;;;;;;1.70;0.85;;;;;;;17.03;50.97;100871.63;4977799;28;20038;-76
2021/12/03 05:32:13;;;;;;;1.48;0.80;;;;;;;17.01;51.08;100865.56;4977491;28;20465;-75
2021/12/03 05:34:39;;;;;;;2.20;0.70;;;;;;;17.02;50.91;100862.06;4977266;28;20075;-76
2021/12/03 05:37:08;;;;;;;2.13;0.90;;;;;;;17.02;50.98;100865.53;4961396;28;20477;-77
2021/12/03 05:39:35;;;;;;;1.45;0.85;;;;;;;17.01;50.95;100871.63;4961144;28;20071;-75
2021/12/03 05:42:00;;;;;;;2.30;0.70;;;;;;;17.01;50.82;100856.00;4961108;28;20035;-75
2021/12/03 05:44:29;;;;;;;1.58;0.80;;;;;;;17.00;50.84;100863.81;4961248;28;20468;-75
2021/12/03 05:46:54;;;;;;;2.38;0.75;;;;;;;17.00;51.01;100851.66;4976918;28;20501;-77
2021/12/03 05:49:20;;;;;;;1.75;0.75;;;;;;;17.00;50.79;100866.41;4961036;28;20058;-76
2021/12/03 05:51:45;;;;;;;1.42;0.80;;;;;;;17.00;50.82;100867.28;4944988;28;20637;-76
2021/12/03 05:54:10;;;;;;;1.58;0.80;;;;;;;17.00;50.92;100867.28;4961226;28;20062;-76
2021/12/03 05:56:36;;;;;;;2.08;0.80;;;;;;;16.98;50.67;100869.00;4960803;28;20392;-76
2021/12/03 05:59:02;;;;;;;1.35;0.70;;;;;;;16.99;50.84;100868.16;4977219;28;20035;-77
2021/12/03 06:01:28;;;;;;;2.28;0.90;;;;;;;16.98;50.76;100858.63;4961071;28;20038;-78
2021/12/03 06:03:54;;;;;;;1.42;0.77;;;;;;;16.98;50.59;100861.22;4976813;28;20054;-77
2021/12/03 06:06:19;;;;;;;1.27;0.77;;;;;;;16.98;50.48;100855.16;4960712;28;20034;-77
2021/12/03 06:08:44;;;;;;;2.70;0.90;;;;;;;16.98;50.61;100863.81;4976743;28;20066;-79
2021/12/03 06:11:10;;;;;;;1.75;0.85;;;;;;;16.98;50.58;100865.56;4976602;28;20440;-78
2021/12/03 06:13:39;;;;;;;1.58;0.70;;;;;;;16.98;50.51;100868.16;4976632;28;20075;-78
2021/12/03 06:16:06;;;;;;;1.10;0.68;;;;;;;16.98;50.56;100847.38;4961161;28;20129;-78
2021/12/03 06:18:32;;;;;;;1.08;0.75;;;;;;;16.95;50.64;100853.44;4960622;28;20465;-77
2021/12/03 06:20:57;;;;;;;2.97;0.82;;;;;;;16.96;50.57;100838.72;4960330;28;20077;-78
2021/12/03 06:23:23;;;;;;;1.70;0.80;;;;;;;16.95;50.78;100840.44;4944355;28;20038;-76
2021/12/03 06:25:48;;;;;;;2.42;0.85;;;;;;;16.96;50.52;100841.31;4960176;28;20027;-78
2021/12/03 06:28:13;;;;;;;2.00;0.90;;;;;;;16.95;50.45;100839.59;4960313;28;20031;-76
2021/12/03 06:30:39;;;;;;;1.73;0.90;;;;;;;16.96;50.60;100847.41;4960208;28;20034;-76
2021/12/03 06:33:05;;;;;;;1.70;0.80;;;;;;;16.96;50.49;100841.31;4960633;28;20045;-77
2021/12/03 06:35:31;;;;;;;2.00;0.75;;;;;;;16.96;50.45;100846.50;4960548;28;20042;-76
2021/12/03 06:37:56;;;;;;;8.00;2.42;;;;;;;16.96;50.63;100843.91;4976204;28;20153;-80
2021/12/03 06:40:25;;;;;;;9.88;3.88;;;;;;;16.95;50.94;100845.66;4948788;28;20515;-88
2021/12/03 06:42:50;;;;;;;8.73;3.58;;;;;;;16.96;51.03;100839.59;4980752;28;20066;-87
2021/12/03 06:45:17;;;;;;;8.73;3.03;;;;;;;16.97;51.17;100840.44;4979804;28;20050;-82
2021/12/03 06:47:42;;;;;;;10.38;3.10;;;;;;;16.97;51.31;100832.66;4975970;28;20060;-80
2021/12/03 06:50:11;;;;;;;8.10;2.90;;;;;;;16.97;51.43;100836.09;4960681;28;20031;-79
2021/12/03 06:52:39;;;;;;;8.95;3.03;;;;;;;16.98;51.22;100822.22;4977672;28;20034;-82
2021/12/03 06:55:09;;;;;;;6.00;2.72;;;;;;;16.99;51.45;100833.50;4960567;28;20038;-81
2021/12/03 06:57:34;;;;;;;8.10;2.45;;;;;;;16.99;51.21;100823.09;4975887;28;20034;-82
2021/12/03 07:00:00;;;;;;;9.60;2.60;;;;;;;16.99;51.74;100831.75;4943818;28;20039;-81
2021/12/03 07:02:25;;;;;;;8.75;2.20;;;;;;;17.01;51.44;100836.97;4959692;28;20037;-83
2021/12/03 07:04:51;;;;;;;7.03;2.30;;;;;;;17.00;51.63;100830.88;4959601;28;20045;-82
2021/12/03 07:07:16;;;;;;;6.75;2.40;;;;;;;17.01;51.52;100836.97;4975632;28;20048;-81
2021/12/03 07:09:42;;;;;;;13.18;2.33;;;;;;;17.00;51.56;100837.81;4960170;28;20065;-77
2021/12/03 07:12:09;;;;;;;5.15;1.98;;;;;;;17.01;51.61;100834.38;4959662;28;20039;-79
2021/12/03 07:14:35;;;;;;;4.40;2.28;;;;;;;17.02;51.54;100838.66;4959690;28;20506;-79
2021/12/03 07:17:05;;;;;;;4.93;2.10;;;;;;;17.01;51.61;100832.63;4975561;28;20162;-81
2021/12/03 07:19:30;;;;;;;6.10;2.22;;;;;;;17.02;51.75;100830.88;4959969;28;20042;-80
2021/12/03 07:21:56;;;;;;;9.32;2.30;;;;;;;17.02;51.62;100826.53;4943220;28;20393;-80
2021/12/03 07:24:21;;;;;;;5.15;1.92;;;;;;;17.02;51.84;100821.31;4975296;28;20396;-82
2021/12/03 07:26:46;;;;;;;4.97;2.05;;;;;;;17.02;51.67;100813.53;4975257;28;20043;-80
2021/12/03 07:29:12;;;;;;;5.68;1.90;;;;;;;17.03;51.58;100819.63;4943172;28;20042;-79
2021/12/03 07:31:38;;;;;;;6.05;2.00;;;;;;;17.02;51.62;100816.13;4959243;28;20074;-81
2021/12/03 07:34:03;;;;;;;6.03;2.20;;;;;;;17.04;51.51;100803.97;4959156;28;20039;-78
2021/12/03 07:36:29;;;;;;;5.60;2.00;;;;;;;17.03;51.70;100804.03;4959096;28;20478;-83
2021/12/03 07:38:54;;;;;;;5.18;2.22;;;;;;;17.04;51.44;100803.97;4942858;28;20035;-80
2021/12/03 07:41:20;;;;;;;3.85;1.88;;;;;;;17.03;51.51;100802.28;4958921;28;20058;-79
2021/12/03 07:43:45;;;;;;;3.97;1.60;;;;;;;17.04;51.62;100797.94;4942964;28;20492;-80
2021/12/03 07:46:10;;;;;;;3.35;1.70;;;;;;;17.05;51.50;100802.28;4942631;28;20055;-80
2021/12/03 07:48:37;;;;;;;3.85;1.70;;;;;;;17.05;51.48;100790.13;4958867;28;20049;-79
2021/12/03 07:51:03;;;;;;;4.88;1.75;;;;;;;17.06;51.63;100794.44;4958409;28;20053;-79
2021/12/03 07:53:28;;;;;;;4.38;1.80;;;;;;;17.05;51.66;100787.53;4958708;28;20400;-80
2021/12/03 07:55:54;;;;;;;6.10;2.00;;;;;;;17.07;51.43;100784.88;4976029;28;20380;-79
2021/12/03 07:58:20;;;;;;;3.60;1.67;;;;;;;17.08;51.50;100783.19;4974931;28;20062;-82
2021/12/03 08:00:47;;;;;;;3.78;1.60;;;;;;;17.12;51.16;100766.69;4974736;28;20041;-85
2021/12/03 08:03:13;;;;;;;5.43;1.80;;;;;;;17.24;51.04;100766.56;4974637;28;20118;-83
2021/12/03 08:05:39;;;;;;;3.35;1.63;;;;;;;17.32;51.04;100764.75;4974879;28;20062;-83
2021/12/03 08:08:05;;;;;;;6.05;2.10;;;;;;;17.36;51.21;100766.44;4942588;28;20038;-82
2021/12/03 08:10:30;;;;;;;4.43;1.80;;;;;;;17.41;51.44;100767.25;4958443;28;20400;-80
2021/12/03 08:12:56;;;;;;;5.20;1.60;;;;;;;17.45;50.84;100755.09;4943080;28;20038;-83
2021/12/03 08:15:21;;;;;;;4.50;1.65;;;;;;;17.45;50.87;100752.50;4958608;28;20129;-80
2021/12/03 08:17:49;;;;;;;3.85;1.50;;;;;;;17.48;50.96;100755.03;4958268;28;20058;-82
2021/12/03 08:20:16;;;;;;;6.55;1.75;;;;;;;17.48;50.92;100755.03;4958316;28;20436;-80
2021/12/03 08:22:42;;;;;;;3.88;1.60;;;;;;;17.47;50.96;100759.41;4958601;28;20156;-81
2021/12/03 08:25:08;;;;;;;7.20;1.67;;;;;;;17.48;51.01;100748.13;4958329;28;20121;-84
2021/12/03 08:27:34;;;;;;;4.32;1.88;;;;;;;17.56;50.75;100754.97;4974424;28;20086;-85
2021/12/03 08:30:00;;;;;;;10.82;3.63;;;;;;;17.57;50.53;100754.97;4958773;28;20401;-85
2021/12/03 08:32:25;;;;;;;11.98;3.53;;;;;;;17.56;50.92;100763.63;4942699;28;20049;-83
2021/12/03 08:34:51;;;;;;;7.78;2.90;;;;;;;17.54;50.67;100754.97;4974209;28;20027;-84
2021/12/03 08:37:50;;;;;;;11.13;3.03;;;;;;;17.53;50.82;100755.00;4974471;28;20401;-84
2021/12/03 08:40:20;;;;;;;6.80;2.30;;;;;;;17.51;50.70;100757.63;4974703;28;20035;-84
2021/12/03 08:42:50;;;;;;;6.47;2.75;;;;;;;17.52;50.82;100755.88;4974045;28;20093;-84
2021/12/03 08:45:18;;;;;;;9.32;2.28;;;;;;;17.54;50.79;100754.13;4958350;28;20051;-83
2021/12/03 08:47:58;;;;;;;8.63;2.50;;;;;;;17.52;50.67;100746.34;4958400;28;20042;-84
2021/12/03 08:50:29;;;;;;;6.82;2.08;;;;;;;17.53;50.73;100744.59;4972667;28;20062;-84
2021/12/03 08:54:47;;;;;;;7.03;2.47;;;;;;;17.55;50.65;100746.31;4958169;28;20035;-84
2021/12/03 08:55:47;;;;;;;5.03;2.08;;;;;;;17.54;50.47;100744.56;4975221;28;20038;-83
2021/12/03 08:58:16;;;;;;;8.00;2.30;;;;;;;17.54;50.65;100744.56;4976313;28;20046;-84
2021/12/03 09:00:44;;;;;;;4.50;2.10;;;;;;;17.56;50.67;100731.56;4975800;28;20030;-83
2021/12/03 09:03:10;;;;;;;3.95;2.10;;;;;;;17.57;50.61;100735.88;4977293;28;20059;-89
2021/12/03 09:05:39;;;;;;;5.90;2.00;;;;;;;17.55;50.63;100738.50;4977345;28;20035;-89
2021/12/03 09:08:05;;;;;;;4.57;2.17;;;;;;;17.57;50.56;100723.75;4960592;28;20101;-88
2021/12/03 09:10:31;;;;;;;3.70;1.80;;;;;;;17.58;50.30;100725.47;4945060;28;20035;-89
2021/12/03 09:12:59;;;;;;;4.40;2.00;;;;;;;17.59;50.51;100721.09;4962062;28;20044;-87
2021/12/03 09:15:29;;;;;;;5.97;1.80;;;;;;;17.61;50.52;100724.56;4960702;28;20038;-89
2021/12/03 09:18:08;;;;;;;4.20;1.65;;;;;;;17.64;50.42;100724.53;4974806;28;20106;-88
2021/12/03 09:20:54;;;;;;;5.85;1.90;;;;;;;17.63;50.17;100718.44;4961424;28;20501;-90
2021/12/03 09:23:32;;;;;;;4.80;1.98;;;;;;;17.63;50.55;100720.19;4963085;28;20049;-89
2021/12/03 09:26:19;;;;;;;4.53;1.80;;;;;;;17.63;50.36;100709.78;4961357;28;20122;-89
2021/12/03 09:28:48;;;;;;;3.47;1.55;;;;;;;17.62;50.50;100708.94;4975544;28;20404;-90
2021/12/03 09:31:16;;;;;;;4.45;1.77;;;;;;;17.64;50.55;100707.19;4976154;28;20055;-89
2021/12/03 09:33:52;;;;;;;2.92;1.42;;;;;;;17.68;50.31;100702.78;4959472;28;20034;-89
2021/12/03 09:36:18;;;;;;;4.30;1.90;;;;;;;17.69;50.01;100704.50;4958434;28;20039;-83
2021/12/03 09:38:44;;;;;;;3.92;1.90;;;;;;;17.66;50.18;100686.34;4975172;28;20042;-89
2021/12/03 09:41:14;;;;;;;2.45;1.48;;;;;;;17.62;50.45;100684.66;4976073;28;20040;-90
2021/12/03 09:43:47;;;;;;;3.78;1.63;;;;;;;17.57;50.47;100684.72;4975379;28;20089;-89
2021/12/03 09:46:18;;;;;;;3.30;1.58;;;;;;;17.57;50.39;100684.72;4975369;28;20046;-90
2021/12/03 09:54:29;;;;;;;2.78;1.42;;;;;;;17.58;50.54;100667.34;4976573;28;20037;-88
2021/12/03 09:57:02;;;;;;;3.58;1.90;;;;;;;17.61;50.35;100664.69;4975988;28;20058;-90
2021/12/03 10:15:09;;;;;;;2.65;1.48;;;;;;;17.59;50.42;100648.25;4977863;28;20515;-89
2021/12/03 10:39:59;;;;;;;3.00;1.30;;;;;;;17.57;50.62;100609.25;4964301;28;20049;-88
2021/12/03 10:45:06;;;;;;;7.15;1.45;;;;;;;17.60;50.11;100609.22;4978461;28;20071;-89
2021/12/03 10:50:23;;;;;;;4.95;1.25;;;;;;;17.62;50.20;100604.84;4977970;28;20101;-90
2021/12/03 10:53:13;;;;;;;2.80;1.20;;;;;;;17.63;50.18;100587.47;4978877;28;20031;-90
2021/12/03 11:11:09;;;;;;;5.18;1.40;;;;;;;17.66;49.64;100531.06;4962164;28;20042;-85
2021/12/03 11:11:44;;;;;;;3.50;1.27;;;;;;;17.66;49.71;100525.84;4976421;28;20054;-87
2021/12/03 11:14:59;;;;;;;2.90;1.25;;;;;;;17.65;49.71;100526.72;4976155;28;20043;-87
2021/12/03 11:39:14;;;;;;;2.22;1.10;;;;;;;17.73;50.04;100485.00;4976672;28;20069;-87
2021/12/03 11:45:42;;;;;;;4.13;1.50;;;;;;;17.77;50.17;100457.16;4936675;28;20177;-79
2021/12/03 12:27:27;;;;;;;4.35;1.27;;;;;;;17.78;50.29;100384.25;4976097;28;20042;-81
2021/12/03 12:31:44;;;;;;;2.42;1.10;;;;;;;17.78;50.32;100399.88;4975456;28;20105;-81
2021/12/03 12:56:03;;;;;;;4.22;1.50;;;;;;;17.72;49.72;100371.34;4975600;28;20042;-86
2021/12/03 13:14:13;;;;;;;3.08;1.70;;;;;;;17.68;48.63;100344.53;4975297;28;20568;-83
2021/12/03 13:17:31;;;;;;;3.70;1.67;;;;;;;17.68;48.73;100346.25;4975004;28;20038;-84
2021/12/03 14:29:39;;;;;;;4.55;2.00;;;;;;;17.75;50.09;100329.69;4976579;28;20475;-75
2021/12/03 14:41:39;;;;;;;4.95;2.17;;;;;;;17.75;50.08;100319.25;4976764;28;20035;-81
2021/12/03 14:46:44;;;;;;;7.68;2.10;;;;;;;17.74;49.94;100307.13;4976883;28;20047;-79
2021/12/03 14:54:48;;;;;;;3.25;2.10;;;;;;;17.76;49.87;100294.09;4976333;28;20045;-79
2021/12/03 15:03:19;;;;;;;3.80;1.90;;;;;;;17.75;50.06;100277.63;4977361;28;20050;-80
2021/12/03 15:06:04;;;;;;;5.57;1.90;;;;;;;17.76;50.01;100276.72;4977151;28;20035;-79
2021/12/03 15:19:10;;;;;;;5.05;1.52;;;;;;;17.76;50.30;100275.88;4975958;28;20043;-78
2021/12/03 16:04:26;;;;;;;3.15;1.65;;;;;;;17.79;50.61;100255.88;4961723;28;20560;-78
2021/12/03 16:09:39;;;;;;;2.78;1.40;;;;;;;17.78;50.46;100248.91;4959382;28;20130;-76
2021/12/03 16:12:14;;;;;;;3.47;1.60;;;;;;;17.78;50.50;100248.91;4947424;28;20042;-81
2021/12/03 16:25:11;;;;;;;;;;;;;;;17.81;50.90;100245.41;4961926;28;20049;-81
2021/12/03 16:46:43;;;;;;;3.05;1.40;;;;;;;17.83;51.51;100247.13;4975482;28;19941;-82
2021/12/03 16:51:53;;;;;;;2.65;1.50;;;;;;;17.84;51.36;100255.81;4974244;28;20042;-83
2021/12/03 16:54:29;;;;;;;2.58;1.50;;;;;;;17.84;51.86;100253.19;4958443;28;20038;-82
2021/12/03 16:56:56;;;;;;;2.50;1.60;;;;;;;17.84;51.30;100238.44;4959217;28;20039;-85
2021/12/03 16:59:22;;;;;;;2.70;1.55;;;;;;;17.84;51.56;100245.38;4958229;28;20122;-83
2021/12/03 17:45:09;;;;;;;2.67;2.17;;;;;;;17.92;52.00;100194.03;4960853;28;20062;-85
2021/12/03 17:52:50;;;;;;;2.97;1.60;;;;;;;17.93;52.17;100200.09;4973510;28;20039;-83
2021/12/03 17:55:30;;;;;;;2.20;1.50;;;;;;;17.93;52.16;100211.34;4961696;28;20093;-86
2021/12/03 18:01:04;;;;;;;2.53;1.70;;;;;;;17.93;51.98;100205.31;4975375;28;20082;-90
2021/12/03 18:03:47;;;;;;;2.10;1.58;;;;;;;17.94;52.19;100212.19;4972471;28;20043;-85
2021/12/03 18:44:42;;;;;;;5.88;1.70;;;;;;;17.65;52.55;100192.81;4970200;28;20054;-89
2021/12/03 18:55:14;;;;;;;3.13;2.00;;;;;;;17.62;52.53;100213.69;4977949;28;20031;-86